<?xml version="1.0" encoding="UTF-8" standalone="no" ?>
<gpx xmlns="http://www.topografix.com/GPX/1/1" xmlns:xsi="http://www.w3.org/2001/XMLSchema-instance" xsi:schemaLocation="http://www.topografix.com/GPX/1/1 http://www.topografix.com/GPX/1/1/gpx.xsd" version="1.1" creator="VisuGPX - https://www.visugpx.com">
  <metadata>
    <name>65 - PEDESTRE - Saint Lary - Lac de Coume</name>
    <desc><![CDATA[Pas de neige - Soleil.]]></desc>
  </metadata>
  <wpt lat="42.79702" lon="0.33114">
    <ele>1572.350098</ele>
    <name><![CDATA[001]]></name>
    <desc><![CDATA[30-DEC-12 3:22:22]]></desc>
  </wpt>
  <trk>
    <name><![CDATA[ACTIVE LOG]]></name>
    <trkseg>
      <trkpt lat="42.80701" lon="0.3401">
        <ele>1202.746582</ele>
        <time>2012-12-30T13:05:28Z</time>
      </trkpt>
      <trkpt lat="42.80701" lon="0.3401">
        <ele>1202.746582</ele>
        <time>2012-12-30T13:05:30Z</time>
      </trkpt>
      <trkpt lat="42.80701" lon="0.3401">
        <ele>1203.227295</ele>
        <time>2012-12-30T13:05:31Z</time>
      </trkpt>
      <trkpt lat="42.80701" lon="0.3401">
        <ele>1205.630615</ele>
        <time>2012-12-30T13:05:36Z</time>
      </trkpt>
      <trkpt lat="42.80701" lon="0.3401">
        <ele>1207.07251</ele>
        <time>2012-12-30T13:05:42Z</time>
      </trkpt>
      <trkpt lat="42.80702" lon="0.34008">
        <ele>1211.398438</ele>
        <time>2012-12-30T13:05:50Z</time>
      </trkpt>
      <trkpt lat="42.80702" lon="0.34008">
        <ele>1209.956299</ele>
        <time>2012-12-30T13:05:51Z</time>
      </trkpt>
      <trkpt lat="42.80704" lon="0.34005">
        <ele>1212.840576</ele>
        <time>2012-12-30T13:06:07Z</time>
      </trkpt>
      <trkpt lat="42.80702" lon="0.34006">
        <ele>1212.840576</ele>
        <time>2012-12-30T13:06:20Z</time>
      </trkpt>
      <trkpt lat="42.80689" lon="0.34014">
        <ele>1213.321289</ele>
        <time>2012-12-30T13:06:35Z</time>
      </trkpt>
      <trkpt lat="42.80688" lon="0.34005">
        <ele>1214.282471</ele>
        <time>2012-12-30T13:07:14Z</time>
      </trkpt>
      <trkpt lat="42.80686" lon="0.33999">
        <ele>1214.763184</ele>
        <time>2012-12-30T13:07:20Z</time>
      </trkpt>
      <trkpt lat="42.80681" lon="0.33978">
        <ele>1218.127686</ele>
        <time>2012-12-30T13:07:35Z</time>
      </trkpt>
      <trkpt lat="42.80681" lon="0.33976">
        <ele>1218.608398</ele>
        <time>2012-12-30T13:07:36Z</time>
      </trkpt>
      <trkpt lat="42.80684" lon="0.33965">
        <ele>1220.050293</ele>
        <time>2012-12-30T13:07:51Z</time>
      </trkpt>
      <trkpt lat="42.80695" lon="0.33945">
        <ele>1222.934326</ele>
        <time>2012-12-30T13:08:09Z</time>
      </trkpt>
      <trkpt lat="42.80704" lon="0.33929">
        <ele>1226.298828</ele>
        <time>2012-12-30T13:08:24Z</time>
      </trkpt>
      <trkpt lat="42.80713" lon="0.33907">
        <ele>1229.663574</ele>
        <time>2012-12-30T13:08:44Z</time>
      </trkpt>
      <trkpt lat="42.80719" lon="0.33885">
        <ele>1232.547607</ele>
        <time>2012-12-30T13:09:03Z</time>
      </trkpt>
      <trkpt lat="42.80728" lon="0.33867">
        <ele>1235.431396</ele>
        <time>2012-12-30T13:09:22Z</time>
      </trkpt>
      <trkpt lat="42.80736" lon="0.33851">
        <ele>1238.796143</ele>
        <time>2012-12-30T13:09:38Z</time>
      </trkpt>
      <trkpt lat="42.8074" lon="0.33846">
        <ele>1240.238037</ele>
        <time>2012-12-30T13:09:43Z</time>
      </trkpt>
      <trkpt lat="42.80749" lon="0.33827">
        <ele>1242.641357</ele>
        <time>2012-12-30T13:10:00Z</time>
      </trkpt>
      <trkpt lat="42.80749" lon="0.33823">
        <ele>1242.160645</ele>
        <time>2012-12-30T13:10:15Z</time>
      </trkpt>
      <trkpt lat="42.80749" lon="0.33821">
        <ele>1243.121826</ele>
        <time>2012-12-30T13:10:19Z</time>
      </trkpt>
      <trkpt lat="42.80756" lon="0.33808">
        <ele>1243.602539</ele>
        <time>2012-12-30T13:10:35Z</time>
      </trkpt>
      <trkpt lat="42.80761" lon="0.33802">
        <ele>1245.044678</ele>
        <time>2012-12-30T13:10:41Z</time>
      </trkpt>
      <trkpt lat="42.80769" lon="0.33783">
        <ele>1245.044678</ele>
        <time>2012-12-30T13:10:59Z</time>
      </trkpt>
      <trkpt lat="42.8077" lon="0.3378">
        <ele>1245.525391</ele>
        <time>2012-12-30T13:11:02Z</time>
      </trkpt>
      <trkpt lat="42.80773" lon="0.33764">
        <ele>1246.006104</ele>
        <time>2012-12-30T13:11:16Z</time>
      </trkpt>
      <trkpt lat="42.80775" lon="0.33747">
        <ele>1249.370605</ele>
        <time>2012-12-30T13:11:30Z</time>
      </trkpt>
      <trkpt lat="42.80779" lon="0.33718">
        <ele>1251.293213</ele>
        <time>2012-12-30T13:11:52Z</time>
      </trkpt>
      <trkpt lat="42.80783" lon="0.33692">
        <ele>1253.21582</ele>
        <time>2012-12-30T13:12:12Z</time>
      </trkpt>
      <trkpt lat="42.80785" lon="0.33669">
        <ele>1257.061035</ele>
        <time>2012-12-30T13:12:29Z</time>
      </trkpt>
      <trkpt lat="42.80786" lon="0.3364">
        <ele>1260.425781</ele>
        <time>2012-12-30T13:12:51Z</time>
      </trkpt>
      <trkpt lat="42.80794" lon="0.33615">
        <ele>1262.348389</ele>
        <time>2012-12-30T13:13:12Z</time>
      </trkpt>
      <trkpt lat="42.80801" lon="0.33594">
        <ele>1264.270996</ele>
        <time>2012-12-30T13:13:30Z</time>
      </trkpt>
      <trkpt lat="42.80805" lon="0.33584">
        <ele>1265.232422</ele>
        <time>2012-12-30T13:13:39Z</time>
      </trkpt>
      <trkpt lat="42.80806" lon="0.33579">
        <ele>1265.713135</ele>
        <time>2012-12-30T13:13:43Z</time>
      </trkpt>
      <trkpt lat="42.8081" lon="0.3356">
        <ele>1268.596924</ele>
        <time>2012-12-30T13:13:58Z</time>
      </trkpt>
      <trkpt lat="42.8081" lon="0.33552">
        <ele>1269.55835</ele>
        <time>2012-12-30T13:14:04Z</time>
      </trkpt>
      <trkpt lat="42.80818" lon="0.33527">
        <ele>1272.442139</ele>
        <time>2012-12-30T13:14:24Z</time>
      </trkpt>
      <trkpt lat="42.80824" lon="0.33517">
        <ele>1272.442139</ele>
        <time>2012-12-30T13:14:44Z</time>
      </trkpt>
      <trkpt lat="42.80823" lon="0.33517">
        <ele>1271.961426</ele>
        <time>2012-12-30T13:15:06Z</time>
      </trkpt>
      <trkpt lat="42.80812" lon="0.33495">
        <ele>1272.922852</ele>
        <time>2012-12-30T13:15:27Z</time>
      </trkpt>
      <trkpt lat="42.80807" lon="0.33489">
        <ele>1273.884033</ele>
        <time>2012-12-30T13:15:45Z</time>
      </trkpt>
      <trkpt lat="42.80806" lon="0.33491">
        <ele>1274.364746</ele>
        <time>2012-12-30T13:16:01Z</time>
      </trkpt>
      <trkpt lat="42.80802" lon="0.33493">
        <ele>1274.845459</ele>
        <time>2012-12-30T13:16:39Z</time>
      </trkpt>
      <trkpt lat="42.80791" lon="0.33503">
        <ele>1276.768311</ele>
        <time>2012-12-30T13:16:58Z</time>
      </trkpt>
      <trkpt lat="42.80782" lon="0.33514">
        <ele>1278.690918</ele>
        <time>2012-12-30T13:17:13Z</time>
      </trkpt>
      <trkpt lat="42.80771" lon="0.33535">
        <ele>1281.574707</ele>
        <time>2012-12-30T13:17:33Z</time>
      </trkpt>
      <trkpt lat="42.8077" lon="0.33537">
        <ele>1282.536133</ele>
        <time>2012-12-30T13:17:35Z</time>
      </trkpt>
      <trkpt lat="42.80757" lon="0.33559">
        <ele>1283.978027</ele>
        <time>2012-12-30T13:17:55Z</time>
      </trkpt>
      <trkpt lat="42.80745" lon="0.33577">
        <ele>1284.939453</ele>
        <time>2012-12-30T13:18:13Z</time>
      </trkpt>
      <trkpt lat="42.80733" lon="0.33601">
        <ele>1285.419922</ele>
        <time>2012-12-30T13:18:34Z</time>
      </trkpt>
      <trkpt lat="42.80721" lon="0.33627">
        <ele>1286.861816</ele>
        <time>2012-12-30T13:18:56Z</time>
      </trkpt>
      <trkpt lat="42.80708" lon="0.33654">
        <ele>1288.303955</ele>
        <time>2012-12-30T13:19:19Z</time>
      </trkpt>
      <trkpt lat="42.80702" lon="0.33662">
        <ele>1289.265137</ele>
        <time>2012-12-30T13:19:28Z</time>
      </trkpt>
      <trkpt lat="42.80693" lon="0.33672">
        <ele>1289.74585</ele>
        <time>2012-12-30T13:19:39Z</time>
      </trkpt>
      <trkpt lat="42.80691" lon="0.33676">
        <ele>1291.187744</ele>
        <time>2012-12-30T13:19:43Z</time>
      </trkpt>
      <trkpt lat="42.80675" lon="0.33683">
        <ele>1292.630127</ele>
        <time>2012-12-30T13:20:01Z</time>
      </trkpt>
      <trkpt lat="42.8066" lon="0.33686">
        <ele>1294.072021</ele>
        <time>2012-12-30T13:20:18Z</time>
      </trkpt>
      <trkpt lat="42.80659" lon="0.33686">
        <ele>1294.55249</ele>
        <time>2012-12-30T13:20:44Z</time>
      </trkpt>
      <trkpt lat="42.8066" lon="0.33685">
        <ele>1295.994629</ele>
        <time>2012-12-30T13:21:19Z</time>
      </trkpt>
      <trkpt lat="42.80664" lon="0.33685">
        <ele>1295.033203</ele>
        <time>2012-12-30T13:21:38Z</time>
      </trkpt>
      <trkpt lat="42.80665" lon="0.33684">
        <ele>1295.033203</ele>
        <time>2012-12-30T13:21:49Z</time>
      </trkpt>
      <trkpt lat="42.80659" lon="0.33679">
        <ele>1296.475342</ele>
        <time>2012-12-30T13:22:44Z</time>
      </trkpt>
      <trkpt lat="42.8065" lon="0.33675">
        <ele>1298.397705</ele>
        <time>2012-12-30T13:22:59Z</time>
      </trkpt>
      <trkpt lat="42.80643" lon="0.33667">
        <ele>1301.762451</ele>
        <time>2012-12-30T13:23:10Z</time>
      </trkpt>
      <trkpt lat="42.80635" lon="0.33655">
        <ele>1305.126953</ele>
        <time>2012-12-30T13:23:24Z</time>
      </trkpt>
      <trkpt lat="42.80625" lon="0.33644">
        <ele>1308.972412</ele>
        <time>2012-12-30T13:23:40Z</time>
      </trkpt>
      <trkpt lat="42.80617" lon="0.33642">
        <ele>1312.336914</ele>
        <time>2012-12-30T13:23:52Z</time>
      </trkpt>
      <trkpt lat="42.80607" lon="0.33637">
        <ele>1315.220947</ele>
        <time>2012-12-30T13:24:07Z</time>
      </trkpt>
      <trkpt lat="42.80604" lon="0.33631">
        <ele>1317.143555</ele>
        <time>2012-12-30T13:24:14Z</time>
      </trkpt>
      <trkpt lat="42.80595" lon="0.33621">
        <ele>1320.98877</ele>
        <time>2012-12-30T13:24:32Z</time>
      </trkpt>
      <trkpt lat="42.80589" lon="0.33615">
        <ele>1323.39209</ele>
        <time>2012-12-30T13:24:41Z</time>
      </trkpt>
      <trkpt lat="42.80584" lon="0.33606">
        <ele>1325.314697</ele>
        <time>2012-12-30T13:24:51Z</time>
      </trkpt>
      <trkpt lat="42.80578" lon="0.33587">
        <ele>1328.679443</ele>
        <time>2012-12-30T13:25:10Z</time>
      </trkpt>
      <trkpt lat="42.80578" lon="0.33566">
        <ele>1332.043945</ele>
        <time>2012-12-30T13:25:28Z</time>
      </trkpt>
      <trkpt lat="42.80573" lon="0.33554">
        <ele>1334.447266</ele>
        <time>2012-12-30T13:25:41Z</time>
      </trkpt>
      <trkpt lat="42.80566" lon="0.33542">
        <ele>1335.88916</ele>
        <time>2012-12-30T13:25:57Z</time>
      </trkpt>
      <trkpt lat="42.80556" lon="0.33539">
        <ele>1338.773193</ele>
        <time>2012-12-30T13:26:12Z</time>
      </trkpt>
      <trkpt lat="42.80545" lon="0.33532">
        <ele>1342.137939</ele>
        <time>2012-12-30T13:26:29Z</time>
      </trkpt>
      <trkpt lat="42.80536" lon="0.33523">
        <ele>1344.541016</ele>
        <time>2012-12-30T13:26:47Z</time>
      </trkpt>
      <trkpt lat="42.80533" lon="0.3352">
        <ele>1346.463867</ele>
        <time>2012-12-30T13:27:26Z</time>
      </trkpt>
      <trkpt lat="42.80532" lon="0.3352">
        <ele>1346.463867</ele>
        <time>2012-12-30T13:27:27Z</time>
      </trkpt>
      <trkpt lat="42.80524" lon="0.33512">
        <ele>1348.38623</ele>
        <time>2012-12-30T13:27:41Z</time>
      </trkpt>
      <trkpt lat="42.80516" lon="0.33501">
        <ele>1350.309082</ele>
        <time>2012-12-30T13:27:58Z</time>
      </trkpt>
      <trkpt lat="42.80514" lon="0.335">
        <ele>1350.789551</ele>
        <time>2012-12-30T13:28:34Z</time>
      </trkpt>
      <trkpt lat="42.80513" lon="0.33493">
        <ele>1351.270264</ele>
        <time>2012-12-30T13:28:55Z</time>
      </trkpt>
      <trkpt lat="42.80508" lon="0.33472">
        <ele>1352.712158</ele>
        <time>2012-12-30T13:29:14Z</time>
      </trkpt>
      <trkpt lat="42.80504" lon="0.33454">
        <ele>1354.634766</ele>
        <time>2012-12-30T13:29:30Z</time>
      </trkpt>
      <trkpt lat="42.80502" lon="0.33451">
        <ele>1354.634766</ele>
        <time>2012-12-30T13:29:45Z</time>
      </trkpt>
      <trkpt lat="42.80498" lon="0.3343">
        <ele>1356.557617</ele>
        <time>2012-12-30T13:30:03Z</time>
      </trkpt>
      <trkpt lat="42.80492" lon="0.33408">
        <ele>1359.922119</ele>
        <time>2012-12-30T13:30:19Z</time>
      </trkpt>
      <trkpt lat="42.80485" lon="0.33386">
        <ele>1362.325439</ele>
        <time>2012-12-30T13:30:36Z</time>
      </trkpt>
      <trkpt lat="42.80477" lon="0.33365">
        <ele>1365.690186</ele>
        <time>2012-12-30T13:30:54Z</time>
      </trkpt>
      <trkpt lat="42.80467" lon="0.33344">
        <ele>1367.612549</ele>
        <time>2012-12-30T13:31:15Z</time>
      </trkpt>
      <trkpt lat="42.80457" lon="0.33334">
        <ele>1370.496582</ele>
        <time>2012-12-30T13:31:33Z</time>
      </trkpt>
      <trkpt lat="42.8045" lon="0.33327">
        <ele>1373.380859</ele>
        <time>2012-12-30T13:31:47Z</time>
      </trkpt>
      <trkpt lat="42.80439" lon="0.33319">
        <ele>1375.783936</ele>
        <time>2012-12-30T13:32:05Z</time>
      </trkpt>
      <trkpt lat="42.80434" lon="0.33316">
        <ele>1377.226074</ele>
        <time>2012-12-30T13:32:23Z</time>
      </trkpt>
      <trkpt lat="42.80433" lon="0.33316">
        <ele>1377.706543</ele>
        <time>2012-12-30T13:32:53Z</time>
      </trkpt>
      <trkpt lat="42.8042" lon="0.33306">
        <ele>1379.62915</ele>
        <time>2012-12-30T13:33:11Z</time>
      </trkpt>
      <trkpt lat="42.80406" lon="0.33299">
        <ele>1382.032471</ele>
        <time>2012-12-30T13:33:30Z</time>
      </trkpt>
      <trkpt lat="42.80399" lon="0.33298">
        <ele>1384.435791</ele>
        <time>2012-12-30T13:33:38Z</time>
      </trkpt>
      <trkpt lat="42.80385" lon="0.333">
        <ele>1385.877686</ele>
        <time>2012-12-30T13:33:54Z</time>
      </trkpt>
      <trkpt lat="42.80371" lon="0.33305">
        <ele>1388.28125</ele>
        <time>2012-12-30T13:34:11Z</time>
      </trkpt>
      <trkpt lat="42.80358" lon="0.33306">
        <ele>1391.165039</ele>
        <time>2012-12-30T13:34:27Z</time>
      </trkpt>
      <trkpt lat="42.80356" lon="0.33306">
        <ele>1391.165039</ele>
        <time>2012-12-30T13:34:30Z</time>
      </trkpt>
      <trkpt lat="42.8034" lon="0.33297">
        <ele>1393.568359</ele>
        <time>2012-12-30T13:34:49Z</time>
      </trkpt>
      <trkpt lat="42.80325" lon="0.33284">
        <ele>1394.529541</ele>
        <time>2012-12-30T13:35:08Z</time>
      </trkpt>
      <trkpt lat="42.80311" lon="0.33275">
        <ele>1397.413574</ele>
        <time>2012-12-30T13:35:25Z</time>
      </trkpt>
      <trkpt lat="42.8031" lon="0.33274">
        <ele>1397.413574</ele>
        <time>2012-12-30T13:35:26Z</time>
      </trkpt>
      <trkpt lat="42.80301" lon="0.3327">
        <ele>1398.855469</ele>
        <time>2012-12-30T13:35:38Z</time>
      </trkpt>
      <trkpt lat="42.80285" lon="0.33273">
        <ele>1401.739502</ele>
        <time>2012-12-30T13:35:57Z</time>
      </trkpt>
      <trkpt lat="42.80273" lon="0.33276">
        <ele>1404.143066</ele>
        <time>2012-12-30T13:36:13Z</time>
      </trkpt>
      <trkpt lat="42.80262" lon="0.33281">
        <ele>1406.546143</ele>
        <time>2012-12-30T13:36:30Z</time>
      </trkpt>
      <trkpt lat="42.80255" lon="0.33285">
        <ele>1409.910645</ele>
        <time>2012-12-30T13:36:41Z</time>
      </trkpt>
      <trkpt lat="42.80243" lon="0.33293">
        <ele>1411.352783</ele>
        <time>2012-12-30T13:36:58Z</time>
      </trkpt>
      <trkpt lat="42.80236" lon="0.33293">
        <ele>1414.717285</ele>
        <time>2012-12-30T13:37:10Z</time>
      </trkpt>
      <trkpt lat="42.80228" lon="0.33295">
        <ele>1415.678711</ele>
        <time>2012-12-30T13:37:24Z</time>
      </trkpt>
      <trkpt lat="42.80218" lon="0.33297">
        <ele>1418.5625</ele>
        <time>2012-12-30T13:37:41Z</time>
      </trkpt>
      <trkpt lat="42.80209" lon="0.33299">
        <ele>1421.927246</ele>
        <time>2012-12-30T13:37:57Z</time>
      </trkpt>
      <trkpt lat="42.80197" lon="0.33301">
        <ele>1425.291748</ele>
        <time>2012-12-30T13:38:14Z</time>
      </trkpt>
      <trkpt lat="42.80185" lon="0.33301">
        <ele>1427.695068</ele>
        <time>2012-12-30T13:38:33Z</time>
      </trkpt>
      <trkpt lat="42.80173" lon="0.33304">
        <ele>1431.059814</ele>
        <time>2012-12-30T13:38:52Z</time>
      </trkpt>
      <trkpt lat="42.80162" lon="0.33306">
        <ele>1433.462891</ele>
        <time>2012-12-30T13:39:08Z</time>
      </trkpt>
      <trkpt lat="42.80156" lon="0.33307">
        <ele>1434.424316</ele>
        <time>2012-12-30T13:39:21Z</time>
      </trkpt>
      <trkpt lat="42.8014" lon="0.33314">
        <ele>1437.30835</ele>
        <time>2012-12-30T13:39:41Z</time>
      </trkpt>
      <trkpt lat="42.80129" lon="0.33315">
        <ele>1439.71167</ele>
        <time>2012-12-30T13:39:58Z</time>
      </trkpt>
      <trkpt lat="42.80116" lon="0.33314">
        <ele>1442.11499</ele>
        <time>2012-12-30T13:40:16Z</time>
      </trkpt>
      <trkpt lat="42.80106" lon="0.33311">
        <ele>1444.998779</ele>
        <time>2012-12-30T13:40:32Z</time>
      </trkpt>
      <trkpt lat="42.80105" lon="0.33304">
        <ele>1447.4021</ele>
        <time>2012-12-30T13:40:49Z</time>
      </trkpt>
      <trkpt lat="42.80105" lon="0.33304">
        <ele>1449.324707</ele>
        <time>2012-12-30T13:41:16Z</time>
      </trkpt>
      <trkpt lat="42.80099" lon="0.33297">
        <ele>1451.247314</ele>
        <time>2012-12-30T13:41:31Z</time>
      </trkpt>
      <trkpt lat="42.80099" lon="0.33291">
        <ele>1453.170166</ele>
        <time>2012-12-30T13:41:43Z</time>
      </trkpt>
      <trkpt lat="42.80091" lon="0.33285">
        <ele>1454.612061</ele>
        <time>2012-12-30T13:41:58Z</time>
      </trkpt>
      <trkpt lat="42.80086" lon="0.33281">
        <ele>1455.092773</ele>
        <time>2012-12-30T13:42:14Z</time>
      </trkpt>
      <trkpt lat="42.80087" lon="0.33274">
        <ele>1458.457275</ele>
        <time>2012-12-30T13:42:30Z</time>
      </trkpt>
      <trkpt lat="42.80082" lon="0.33264">
        <ele>1460.860596</ele>
        <time>2012-12-30T13:42:44Z</time>
      </trkpt>
      <trkpt lat="42.80072" lon="0.33255">
        <ele>1462.30249</ele>
        <time>2012-12-30T13:43:01Z</time>
      </trkpt>
      <trkpt lat="42.80069" lon="0.33251">
        <ele>1463.744385</ele>
        <time>2012-12-30T13:43:16Z</time>
      </trkpt>
      <trkpt lat="42.80066" lon="0.33247">
        <ele>1464.225098</ele>
        <time>2012-12-30T13:43:34Z</time>
      </trkpt>
      <trkpt lat="42.80065" lon="0.33247">
        <ele>1463.744385</ele>
        <time>2012-12-30T13:44:00Z</time>
      </trkpt>
      <trkpt lat="42.80065" lon="0.33245">
        <ele>1463.744385</ele>
        <time>2012-12-30T13:44:34Z</time>
      </trkpt>
      <trkpt lat="42.80065" lon="0.33245">
        <ele>1463.263916</ele>
        <time>2012-12-30T13:45:12Z</time>
      </trkpt>
      <trkpt lat="42.80065" lon="0.33245">
        <ele>1464.225098</ele>
        <time>2012-12-30T13:46:00Z</time>
      </trkpt>
      <trkpt lat="42.80065" lon="0.33244">
        <ele>1463.263916</ele>
        <time>2012-12-30T13:46:31Z</time>
      </trkpt>
      <trkpt lat="42.80061" lon="0.33231">
        <ele>1462.783203</ele>
        <time>2012-12-30T13:46:48Z</time>
      </trkpt>
      <trkpt lat="42.80049" lon="0.33212">
        <ele>1462.30249</ele>
        <time>2012-12-30T13:47:09Z</time>
      </trkpt>
      <trkpt lat="42.8004" lon="0.33201">
        <ele>1463.263916</ele>
        <time>2012-12-30T13:47:25Z</time>
      </trkpt>
      <trkpt lat="42.80027" lon="0.33186">
        <ele>1464.225098</ele>
        <time>2012-12-30T13:47:46Z</time>
      </trkpt>
      <trkpt lat="42.80018" lon="0.33178">
        <ele>1465.667236</ele>
        <time>2012-12-30T13:48:02Z</time>
      </trkpt>
      <trkpt lat="42.80011" lon="0.33172">
        <ele>1465.667236</ele>
        <time>2012-12-30T13:48:18Z</time>
      </trkpt>
      <trkpt lat="42.8001" lon="0.33169">
        <ele>1465.667236</ele>
        <time>2012-12-30T13:48:23Z</time>
      </trkpt>
      <trkpt lat="42.80002" lon="0.33169">
        <ele>1465.667236</ele>
        <time>2012-12-30T13:48:39Z</time>
      </trkpt>
      <trkpt lat="42.79995" lon="0.33168">
        <ele>1465.186523</ele>
        <time>2012-12-30T13:48:54Z</time>
      </trkpt>
      <trkpt lat="42.79979" lon="0.33164">
        <ele>1467.109131</ele>
        <time>2012-12-30T13:49:14Z</time>
      </trkpt>
      <trkpt lat="42.79962" lon="0.33159">
        <ele>1469.512695</ele>
        <time>2012-12-30T13:49:36Z</time>
      </trkpt>
      <trkpt lat="42.79948" lon="0.33163">
        <ele>1470.95459</ele>
        <time>2012-12-30T13:49:54Z</time>
      </trkpt>
      <trkpt lat="42.79935" lon="0.33168">
        <ele>1473.35791</ele>
        <time>2012-12-30T13:50:13Z</time>
      </trkpt>
      <trkpt lat="42.79927" lon="0.33171">
        <ele>1474.319092</ele>
        <time>2012-12-30T13:50:30Z</time>
      </trkpt>
      <trkpt lat="42.79916" lon="0.33176">
        <ele>1474.799805</ele>
        <time>2012-12-30T13:50:45Z</time>
      </trkpt>
      <trkpt lat="42.79906" lon="0.3319">
        <ele>1475.760986</ele>
        <time>2012-12-30T13:50:59Z</time>
      </trkpt>
      <trkpt lat="42.79901" lon="0.33207">
        <ele>1475.760986</ele>
        <time>2012-12-30T13:51:16Z</time>
      </trkpt>
      <trkpt lat="42.79895" lon="0.33223">
        <ele>1475.760986</ele>
        <time>2012-12-30T13:51:30Z</time>
      </trkpt>
      <trkpt lat="42.79884" lon="0.33239">
        <ele>1476.241699</ele>
        <time>2012-12-30T13:51:49Z</time>
      </trkpt>
      <trkpt lat="42.79874" lon="0.33246">
        <ele>1476.722412</ele>
        <time>2012-12-30T13:52:04Z</time>
      </trkpt>
      <trkpt lat="42.79861" lon="0.33253">
        <ele>1477.203125</ele>
        <time>2012-12-30T13:52:22Z</time>
      </trkpt>
      <trkpt lat="42.79847" lon="0.33264">
        <ele>1477.683594</ele>
        <time>2012-12-30T13:52:39Z</time>
      </trkpt>
      <trkpt lat="42.79832" lon="0.33275">
        <ele>1477.683594</ele>
        <time>2012-12-30T13:52:56Z</time>
      </trkpt>
      <trkpt lat="42.79816" lon="0.33283">
        <ele>1478.164307</ele>
        <time>2012-12-30T13:53:13Z</time>
      </trkpt>
      <trkpt lat="42.79801" lon="0.3329">
        <ele>1478.64502</ele>
        <time>2012-12-30T13:53:28Z</time>
      </trkpt>
      <trkpt lat="42.79787" lon="0.33294">
        <ele>1478.64502</ele>
        <time>2012-12-30T13:53:43Z</time>
      </trkpt>
      <trkpt lat="42.79775" lon="0.33298">
        <ele>1478.64502</ele>
        <time>2012-12-30T13:53:57Z</time>
      </trkpt>
      <trkpt lat="42.7977" lon="0.33308">
        <ele>1478.64502</ele>
        <time>2012-12-30T13:54:09Z</time>
      </trkpt>
      <trkpt lat="42.79756" lon="0.33326">
        <ele>1478.64502</ele>
        <time>2012-12-30T13:54:30Z</time>
      </trkpt>
      <trkpt lat="42.79755" lon="0.3333">
        <ele>1478.164307</ele>
        <time>2012-12-30T13:54:33Z</time>
      </trkpt>
      <trkpt lat="42.7975" lon="0.33349">
        <ele>1478.64502</ele>
        <time>2012-12-30T13:54:50Z</time>
      </trkpt>
      <trkpt lat="42.79743" lon="0.33369">
        <ele>1478.64502</ele>
        <time>2012-12-30T13:55:08Z</time>
      </trkpt>
      <trkpt lat="42.79734" lon="0.33393">
        <ele>1479.125488</ele>
        <time>2012-12-30T13:55:28Z</time>
      </trkpt>
      <trkpt lat="42.79723" lon="0.33409">
        <ele>1479.606201</ele>
        <time>2012-12-30T13:55:44Z</time>
      </trkpt>
      <trkpt lat="42.79718" lon="0.33434">
        <ele>1481.04834</ele>
        <time>2012-12-30T13:56:06Z</time>
      </trkpt>
      <trkpt lat="42.79716" lon="0.33451">
        <ele>1482.970703</ele>
        <time>2012-12-30T13:56:24Z</time>
      </trkpt>
      <trkpt lat="42.79715" lon="0.33466">
        <ele>1485.374268</ele>
        <time>2012-12-30T13:56:37Z</time>
      </trkpt>
      <trkpt lat="42.79717" lon="0.33489">
        <ele>1486.816162</ele>
        <time>2012-12-30T13:56:54Z</time>
      </trkpt>
      <trkpt lat="42.79718" lon="0.33508">
        <ele>1488.258301</ele>
        <time>2012-12-30T13:57:09Z</time>
      </trkpt>
      <trkpt lat="42.79718" lon="0.33526">
        <ele>1490.180908</ele>
        <time>2012-12-30T13:57:23Z</time>
      </trkpt>
      <trkpt lat="42.79715" lon="0.33542">
        <ele>1491.14209</ele>
        <time>2012-12-30T13:57:38Z</time>
      </trkpt>
      <trkpt lat="42.79713" lon="0.33563">
        <ele>1494.026123</ele>
        <time>2012-12-30T13:57:55Z</time>
      </trkpt>
      <trkpt lat="42.79707" lon="0.33585">
        <ele>1495.468018</ele>
        <time>2012-12-30T13:58:12Z</time>
      </trkpt>
      <trkpt lat="42.797" lon="0.33606">
        <ele>1497.390625</ele>
        <time>2012-12-30T13:58:30Z</time>
      </trkpt>
      <trkpt lat="42.79692" lon="0.33623">
        <ele>1498.83252</ele>
        <time>2012-12-30T13:58:47Z</time>
      </trkpt>
      <trkpt lat="42.79687" lon="0.33646">
        <ele>1499.793945</ele>
        <time>2012-12-30T13:59:06Z</time>
      </trkpt>
      <trkpt lat="42.79684" lon="0.33663">
        <ele>1501.716797</ele>
        <time>2012-12-30T13:59:22Z</time>
      </trkpt>
      <trkpt lat="42.79681" lon="0.33679">
        <ele>1502.677979</ele>
        <time>2012-12-30T13:59:37Z</time>
      </trkpt>
      <trkpt lat="42.79674" lon="0.33699">
        <ele>1504.600586</ele>
        <time>2012-12-30T13:59:56Z</time>
      </trkpt>
      <trkpt lat="42.79669" lon="0.33721">
        <ele>1504.600586</ele>
        <time>2012-12-30T14:00:15Z</time>
      </trkpt>
      <trkpt lat="42.79666" lon="0.33739">
        <ele>1507.484619</ele>
        <time>2012-12-30T14:00:31Z</time>
      </trkpt>
      <trkpt lat="42.79656" lon="0.33765">
        <ele>1509.887695</ele>
        <time>2012-12-30T14:00:54Z</time>
      </trkpt>
      <trkpt lat="42.79645" lon="0.33785">
        <ele>1511.810547</ele>
        <time>2012-12-30T14:01:15Z</time>
      </trkpt>
      <trkpt lat="42.79636" lon="0.33803">
        <ele>1513.252441</ele>
        <time>2012-12-30T14:01:34Z</time>
      </trkpt>
      <trkpt lat="42.79628" lon="0.33816">
        <ele>1514.213623</ele>
        <time>2012-12-30T14:01:50Z</time>
      </trkpt>
      <trkpt lat="42.79623" lon="0.33825">
        <ele>1514.694336</ele>
        <time>2012-12-30T14:02:09Z</time>
      </trkpt>
      <trkpt lat="42.79615" lon="0.33835">
        <ele>1516.617188</ele>
        <time>2012-12-30T14:02:30Z</time>
      </trkpt>
      <trkpt lat="42.79607" lon="0.33847">
        <ele>1517.0979</ele>
        <time>2012-12-30T14:02:48Z</time>
      </trkpt>
      <trkpt lat="42.7961" lon="0.33842">
        <ele>1516.617188</ele>
        <time>2012-12-30T14:03:02Z</time>
      </trkpt>
      <trkpt lat="42.79616" lon="0.33832">
        <ele>1516.136475</ele>
        <time>2012-12-30T14:03:16Z</time>
      </trkpt>
      <trkpt lat="42.79622" lon="0.33825">
        <ele>1515.655762</ele>
        <time>2012-12-30T14:03:36Z</time>
      </trkpt>
      <trkpt lat="42.79626" lon="0.33814">
        <ele>1515.175049</ele>
        <time>2012-12-30T14:03:53Z</time>
      </trkpt>
      <trkpt lat="42.79626" lon="0.33797">
        <ele>1516.136475</ele>
        <time>2012-12-30T14:04:10Z</time>
      </trkpt>
      <trkpt lat="42.79626" lon="0.33783">
        <ele>1518.059082</ele>
        <time>2012-12-30T14:04:25Z</time>
      </trkpt>
      <trkpt lat="42.79625" lon="0.33765">
        <ele>1519.981689</ele>
        <time>2012-12-30T14:04:42Z</time>
      </trkpt>
      <trkpt lat="42.7963" lon="0.33739">
        <ele>1522.38501</ele>
        <time>2012-12-30T14:05:06Z</time>
      </trkpt>
      <trkpt lat="42.79629" lon="0.33717">
        <ele>1525.268799</ele>
        <time>2012-12-30T14:05:28Z</time>
      </trkpt>
      <trkpt lat="42.7963" lon="0.33696">
        <ele>1526.710938</ele>
        <time>2012-12-30T14:05:45Z</time>
      </trkpt>
      <trkpt lat="42.7963" lon="0.33683">
        <ele>1527.19165</ele>
        <time>2012-12-30T14:06:02Z</time>
      </trkpt>
      <trkpt lat="42.7963" lon="0.33667">
        <ele>1529.114014</ele>
        <time>2012-12-30T14:06:18Z</time>
      </trkpt>
      <trkpt lat="42.79629" lon="0.33652">
        <ele>1531.517334</ele>
        <time>2012-12-30T14:06:36Z</time>
      </trkpt>
      <trkpt lat="42.7963" lon="0.33643">
        <ele>1532.959473</ele>
        <time>2012-12-30T14:06:45Z</time>
      </trkpt>
      <trkpt lat="42.79633" lon="0.33623">
        <ele>1533.920898</ele>
        <time>2012-12-30T14:07:04Z</time>
      </trkpt>
      <trkpt lat="42.79629" lon="0.33601">
        <ele>1536.324219</ele>
        <time>2012-12-30T14:07:26Z</time>
      </trkpt>
      <trkpt lat="42.79627" lon="0.33584">
        <ele>1538.246826</ele>
        <time>2012-12-30T14:07:43Z</time>
      </trkpt>
      <trkpt lat="42.79626" lon="0.33567">
        <ele>1540.169434</ele>
        <time>2012-12-30T14:07:59Z</time>
      </trkpt>
      <trkpt lat="42.7962" lon="0.33548">
        <ele>1542.092041</ele>
        <time>2012-12-30T14:08:19Z</time>
      </trkpt>
      <trkpt lat="42.79616" lon="0.33529">
        <ele>1544.495117</ele>
        <time>2012-12-30T14:08:38Z</time>
      </trkpt>
      <trkpt lat="42.79614" lon="0.33515">
        <ele>1545.937256</ele>
        <time>2012-12-30T14:08:53Z</time>
      </trkpt>
      <trkpt lat="42.79612" lon="0.33503">
        <ele>1545.937256</ele>
        <time>2012-12-30T14:09:02Z</time>
      </trkpt>
      <trkpt lat="42.79609" lon="0.33482">
        <ele>1546.898438</ele>
        <time>2012-12-30T14:09:20Z</time>
      </trkpt>
      <trkpt lat="42.79608" lon="0.33473">
        <ele>1547.37915</ele>
        <time>2012-12-30T14:09:35Z</time>
      </trkpt>
      <trkpt lat="42.79605" lon="0.33453">
        <ele>1548.340576</ele>
        <time>2012-12-30T14:09:55Z</time>
      </trkpt>
      <trkpt lat="42.79604" lon="0.33438">
        <ele>1549.302002</ele>
        <time>2012-12-30T14:10:13Z</time>
      </trkpt>
      <trkpt lat="42.79601" lon="0.33424">
        <ele>1550.263428</ele>
        <time>2012-12-30T14:10:33Z</time>
      </trkpt>
      <trkpt lat="42.79602" lon="0.33405">
        <ele>1551.705322</ele>
        <time>2012-12-30T14:10:49Z</time>
      </trkpt>
      <trkpt lat="42.796" lon="0.33384">
        <ele>1553.147217</ele>
        <time>2012-12-30T14:11:09Z</time>
      </trkpt>
      <trkpt lat="42.79599" lon="0.33368">
        <ele>1554.589111</ele>
        <time>2012-12-30T14:11:25Z</time>
      </trkpt>
      <trkpt lat="42.79602" lon="0.33339">
        <ele>1556.992432</ele>
        <time>2012-12-30T14:11:44Z</time>
      </trkpt>
      <trkpt lat="42.79601" lon="0.33324">
        <ele>1558.434326</ele>
        <time>2012-12-30T14:11:55Z</time>
      </trkpt>
      <trkpt lat="42.79601" lon="0.33299">
        <ele>1559.876221</ele>
        <time>2012-12-30T14:12:14Z</time>
      </trkpt>
      <trkpt lat="42.796" lon="0.33281">
        <ele>1559.876221</ele>
        <time>2012-12-30T14:12:31Z</time>
      </trkpt>
      <trkpt lat="42.79602" lon="0.33263">
        <ele>1561.799072</ele>
        <time>2012-12-30T14:12:51Z</time>
      </trkpt>
      <trkpt lat="42.79602" lon="0.33256">
        <ele>1562.279541</ele>
        <time>2012-12-30T14:13:09Z</time>
      </trkpt>
      <trkpt lat="42.79599" lon="0.33249">
        <ele>1562.760254</ele>
        <time>2012-12-30T14:13:29Z</time>
      </trkpt>
      <trkpt lat="42.79605" lon="0.33233">
        <ele>1563.721436</ele>
        <time>2012-12-30T14:13:46Z</time>
      </trkpt>
      <trkpt lat="42.79612" lon="0.33213">
        <ele>1566.605713</ele>
        <time>2012-12-30T14:14:05Z</time>
      </trkpt>
      <trkpt lat="42.79618" lon="0.33196">
        <ele>1569.009033</ele>
        <time>2012-12-30T14:14:24Z</time>
      </trkpt>
      <trkpt lat="42.79625" lon="0.33181">
        <ele>1570.931641</ele>
        <time>2012-12-30T14:14:42Z</time>
      </trkpt>
      <trkpt lat="42.79633" lon="0.33175">
        <ele>1572.373535</ele>
        <time>2012-12-30T14:14:57Z</time>
      </trkpt>
      <trkpt lat="42.79635" lon="0.33172">
        <ele>1571.892822</ele>
        <time>2012-12-30T14:15:11Z</time>
      </trkpt>
      <trkpt lat="42.79646" lon="0.33168">
        <ele>1571.412109</ele>
        <time>2012-12-30T14:15:29Z</time>
      </trkpt>
      <trkpt lat="42.79652" lon="0.3316">
        <ele>1570.931641</ele>
        <time>2012-12-30T14:15:44Z</time>
      </trkpt>
      <trkpt lat="42.79658" lon="0.33161">
        <ele>1571.892822</ele>
        <time>2012-12-30T14:16:02Z</time>
      </trkpt>
      <trkpt lat="42.79662" lon="0.33165">
        <ele>1572.854248</ele>
        <time>2012-12-30T14:16:14Z</time>
      </trkpt>
      <trkpt lat="42.79664" lon="0.33162">
        <ele>1572.854248</ele>
        <time>2012-12-30T14:16:37Z</time>
      </trkpt>
      <trkpt lat="42.79665" lon="0.33161">
        <ele>1572.854248</ele>
        <time>2012-12-30T14:16:49Z</time>
      </trkpt>
      <trkpt lat="42.79675" lon="0.33157">
        <ele>1573.334961</ele>
        <time>2012-12-30T14:17:10Z</time>
      </trkpt>
      <trkpt lat="42.79687" lon="0.33152">
        <ele>1573.81543</ele>
        <time>2012-12-30T14:17:27Z</time>
      </trkpt>
      <trkpt lat="42.79687" lon="0.33151">
        <ele>1573.81543</ele>
        <time>2012-12-30T14:18:31Z</time>
      </trkpt>
      <trkpt lat="42.79689" lon="0.33149">
        <ele>1573.81543</ele>
        <time>2012-12-30T14:19:11Z</time>
      </trkpt>
      <trkpt lat="42.79688" lon="0.3314">
        <ele>1572.854248</ele>
        <time>2012-12-30T14:20:45Z</time>
      </trkpt>
      <trkpt lat="42.79693" lon="0.33124">
        <ele>1571.892822</ele>
        <time>2012-12-30T14:21:02Z</time>
      </trkpt>
      <trkpt lat="42.79702" lon="0.33116">
        <ele>1570.931641</ele>
        <time>2012-12-30T14:21:18Z</time>
      </trkpt>
      <trkpt lat="42.79703" lon="0.33117">
        <ele>1571.892822</ele>
        <time>2012-12-30T14:21:40Z</time>
      </trkpt>
      <trkpt lat="42.79702" lon="0.33114">
        <ele>1572.373535</ele>
        <time>2012-12-30T14:22:21Z</time>
      </trkpt>
      <trkpt lat="42.79702" lon="0.33102">
        <ele>1571.412109</ele>
        <time>2012-12-30T14:22:53Z</time>
      </trkpt>
      <trkpt lat="42.79703" lon="0.33088">
        <ele>1571.892822</ele>
        <time>2012-12-30T14:23:09Z</time>
      </trkpt>
      <trkpt lat="42.79708" lon="0.33078">
        <ele>1571.892822</ele>
        <time>2012-12-30T14:23:26Z</time>
      </trkpt>
      <trkpt lat="42.79713" lon="0.33072">
        <ele>1569.489746</ele>
        <time>2012-12-30T14:23:43Z</time>
      </trkpt>
      <trkpt lat="42.79719" lon="0.33069">
        <ele>1565.644531</ele>
        <time>2012-12-30T14:23:55Z</time>
      </trkpt>
      <trkpt lat="42.79725" lon="0.33065">
        <ele>1563.240967</ele>
        <time>2012-12-30T14:24:10Z</time>
      </trkpt>
      <trkpt lat="42.79731" lon="0.33059">
        <ele>1560.837646</ele>
        <time>2012-12-30T14:24:21Z</time>
      </trkpt>
      <trkpt lat="42.79745" lon="0.33058">
        <ele>1557.473145</ele>
        <time>2012-12-30T14:24:39Z</time>
      </trkpt>
      <trkpt lat="42.79754" lon="0.33061">
        <ele>1554.108643</ele>
        <time>2012-12-30T14:24:55Z</time>
      </trkpt>
      <trkpt lat="42.79759" lon="0.33063">
        <ele>1552.666504</ele>
        <time>2012-12-30T14:25:20Z</time>
      </trkpt>
      <trkpt lat="42.79765" lon="0.33072">
        <ele>1550.743896</ele>
        <time>2012-12-30T14:25:36Z</time>
      </trkpt>
      <trkpt lat="42.7977" lon="0.33072">
        <ele>1547.37915</ele>
        <time>2012-12-30T14:25:47Z</time>
      </trkpt>
      <trkpt lat="42.79775" lon="0.33079">
        <ele>1544.97583</ele>
        <time>2012-12-30T14:26:04Z</time>
      </trkpt>
      <trkpt lat="42.79776" lon="0.3308">
        <ele>1543.533936</ele>
        <time>2012-12-30T14:26:07Z</time>
      </trkpt>
      <trkpt lat="42.79782" lon="0.33085">
        <ele>1541.130615</ele>
        <time>2012-12-30T14:26:21Z</time>
      </trkpt>
      <trkpt lat="42.79785" lon="0.33083">
        <ele>1537.766113</ele>
        <time>2012-12-30T14:26:31Z</time>
      </trkpt>
      <trkpt lat="42.79792" lon="0.33083">
        <ele>1534.401611</ele>
        <time>2012-12-30T14:26:47Z</time>
      </trkpt>
      <trkpt lat="42.79799" lon="0.3308">
        <ele>1531.036865</ele>
        <time>2012-12-30T14:27:05Z</time>
      </trkpt>
      <trkpt lat="42.79804" lon="0.3308">
        <ele>1528.152832</ele>
        <time>2012-12-30T14:27:16Z</time>
      </trkpt>
      <trkpt lat="42.79811" lon="0.33086">
        <ele>1525.749512</ele>
        <time>2012-12-30T14:27:33Z</time>
      </trkpt>
      <trkpt lat="42.79821" lon="0.33088">
        <ele>1522.38501</ele>
        <time>2012-12-30T14:27:49Z</time>
      </trkpt>
      <trkpt lat="42.7983" lon="0.3309">
        <ele>1518.539795</ele>
        <time>2012-12-30T14:28:00Z</time>
      </trkpt>
      <trkpt lat="42.79841" lon="0.33092">
        <ele>1516.617188</ele>
        <time>2012-12-30T14:28:18Z</time>
      </trkpt>
      <trkpt lat="42.79851" lon="0.33094">
        <ele>1514.213623</ele>
        <time>2012-12-30T14:28:34Z</time>
      </trkpt>
      <trkpt lat="42.7986" lon="0.33097">
        <ele>1511.329834</ele>
        <time>2012-12-30T14:28:48Z</time>
      </trkpt>
      <trkpt lat="42.7987" lon="0.33099">
        <ele>1508.926514</ele>
        <time>2012-12-30T14:29:06Z</time>
      </trkpt>
      <trkpt lat="42.79885" lon="0.33099">
        <ele>1507.484619</ele>
        <time>2012-12-30T14:29:24Z</time>
      </trkpt>
      <trkpt lat="42.79888" lon="0.33096">
        <ele>1507.484619</ele>
        <time>2012-12-30T14:29:43Z</time>
      </trkpt>
      <trkpt lat="42.79893" lon="0.33093">
        <ele>1506.04248</ele>
        <time>2012-12-30T14:29:59Z</time>
      </trkpt>
      <trkpt lat="42.799" lon="0.33096">
        <ele>1504.600586</ele>
        <time>2012-12-30T14:30:16Z</time>
      </trkpt>
      <trkpt lat="42.7991" lon="0.33096">
        <ele>1501.716797</ele>
        <time>2012-12-30T14:30:30Z</time>
      </trkpt>
      <trkpt lat="42.79922" lon="0.33096">
        <ele>1501.236084</ele>
        <time>2012-12-30T14:30:45Z</time>
      </trkpt>
      <trkpt lat="42.79929" lon="0.33092">
        <ele>1498.83252</ele>
        <time>2012-12-30T14:31:00Z</time>
      </trkpt>
      <trkpt lat="42.79938" lon="0.3309">
        <ele>1496.429443</ele>
        <time>2012-12-30T14:31:16Z</time>
      </trkpt>
      <trkpt lat="42.79948" lon="0.33092">
        <ele>1494.506592</ele>
        <time>2012-12-30T14:31:30Z</time>
      </trkpt>
      <trkpt lat="42.79957" lon="0.33098">
        <ele>1490.661377</ele>
        <time>2012-12-30T14:31:42Z</time>
      </trkpt>
      <trkpt lat="42.79965" lon="0.33102">
        <ele>1488.739014</ele>
        <time>2012-12-30T14:31:52Z</time>
      </trkpt>
      <trkpt lat="42.79977" lon="0.33109">
        <ele>1486.816162</ele>
        <time>2012-12-30T14:32:11Z</time>
      </trkpt>
      <trkpt lat="42.79992" lon="0.33119">
        <ele>1483.451416</ele>
        <time>2012-12-30T14:32:32Z</time>
      </trkpt>
      <trkpt lat="42.80002" lon="0.33127">
        <ele>1480.567627</ele>
        <time>2012-12-30T14:32:46Z</time>
      </trkpt>
      <trkpt lat="42.80003" lon="0.33129">
        <ele>1481.04834</ele>
        <time>2012-12-30T14:32:55Z</time>
      </trkpt>
      <trkpt lat="42.80011" lon="0.33133">
        <ele>1480.086914</ele>
        <time>2012-12-30T14:33:08Z</time>
      </trkpt>
      <trkpt lat="42.80014" lon="0.33134">
        <ele>1478.64502</ele>
        <time>2012-12-30T14:33:40Z</time>
      </trkpt>
      <trkpt lat="42.80021" lon="0.33141">
        <ele>1478.164307</ele>
        <time>2012-12-30T14:34:16Z</time>
      </trkpt>
      <trkpt lat="42.80023" lon="0.33142">
        <ele>1477.683594</ele>
        <time>2012-12-30T14:34:18Z</time>
      </trkpt>
      <trkpt lat="42.80026" lon="0.33145">
        <ele>1475.760986</ele>
        <time>2012-12-30T14:34:22Z</time>
      </trkpt>
      <trkpt lat="42.80032" lon="0.33156">
        <ele>1473.838379</ele>
        <time>2012-12-30T14:34:36Z</time>
      </trkpt>
      <trkpt lat="42.80034" lon="0.33159">
        <ele>1472.396484</ele>
        <time>2012-12-30T14:34:40Z</time>
      </trkpt>
      <trkpt lat="42.80046" lon="0.33173">
        <ele>1470.473877</ele>
        <time>2012-12-30T14:34:57Z</time>
      </trkpt>
      <trkpt lat="42.8006" lon="0.33189">
        <ele>1469.993164</ele>
        <time>2012-12-30T14:35:15Z</time>
      </trkpt>
      <trkpt lat="42.80073" lon="0.33207">
        <ele>1469.993164</ele>
        <time>2012-12-30T14:35:34Z</time>
      </trkpt>
      <trkpt lat="42.80086" lon="0.33236">
        <ele>1470.95459</ele>
        <time>2012-12-30T14:35:55Z</time>
      </trkpt>
      <trkpt lat="42.8009" lon="0.33241">
        <ele>1471.435059</ele>
        <time>2012-12-30T14:36:08Z</time>
      </trkpt>
      <trkpt lat="42.80099" lon="0.33246">
        <ele>1468.070557</ele>
        <time>2012-12-30T14:36:23Z</time>
      </trkpt>
      <trkpt lat="42.80106" lon="0.3325">
        <ele>1466.628418</ele>
        <time>2012-12-30T14:36:37Z</time>
      </trkpt>
      <trkpt lat="42.80115" lon="0.33252">
        <ele>1463.263916</ele>
        <time>2012-12-30T14:36:50Z</time>
      </trkpt>
      <trkpt lat="42.80129" lon="0.33248">
        <ele>1459.89917</ele>
        <time>2012-12-30T14:37:08Z</time>
      </trkpt>
      <trkpt lat="42.8014" lon="0.33246">
        <ele>1456.534668</ele>
        <time>2012-12-30T14:37:26Z</time>
      </trkpt>
      <trkpt lat="42.80152" lon="0.33242">
        <ele>1453.170166</ele>
        <time>2012-12-30T14:37:44Z</time>
      </trkpt>
      <trkpt lat="42.80163" lon="0.33236">
        <ele>1451.247314</ele>
        <time>2012-12-30T14:38:00Z</time>
      </trkpt>
      <trkpt lat="42.8017" lon="0.33233">
        <ele>1448.363281</ele>
        <time>2012-12-30T14:38:09Z</time>
      </trkpt>
      <trkpt lat="42.80181" lon="0.33231">
        <ele>1444.998779</ele>
        <time>2012-12-30T14:38:24Z</time>
      </trkpt>
      <trkpt lat="42.80195" lon="0.33225">
        <ele>1441.634277</ele>
        <time>2012-12-30T14:38:42Z</time>
      </trkpt>
      <trkpt lat="42.80208" lon="0.33219">
        <ele>1439.230957</ele>
        <time>2012-12-30T14:39:00Z</time>
      </trkpt>
      <trkpt lat="42.80219" lon="0.33213">
        <ele>1435.866211</ele>
        <time>2012-12-30T14:39:16Z</time>
      </trkpt>
      <trkpt lat="42.8023" lon="0.33205">
        <ele>1433.462891</ele>
        <time>2012-12-30T14:39:32Z</time>
      </trkpt>
      <trkpt lat="42.80238" lon="0.33204">
        <ele>1429.617676</ele>
        <time>2012-12-30T14:39:44Z</time>
      </trkpt>
      <trkpt lat="42.8024" lon="0.33202">
        <ele>1429.136963</ele>
        <time>2012-12-30T14:39:48Z</time>
      </trkpt>
      <trkpt lat="42.80249" lon="0.33195">
        <ele>1426.733887</ele>
        <time>2012-12-30T14:40:03Z</time>
      </trkpt>
      <trkpt lat="42.80258" lon="0.33189">
        <ele>1423.849854</ele>
        <time>2012-12-30T14:40:16Z</time>
      </trkpt>
      <trkpt lat="42.8027" lon="0.33187">
        <ele>1421.927246</ele>
        <time>2012-12-30T14:40:32Z</time>
      </trkpt>
      <trkpt lat="42.8028" lon="0.33193">
        <ele>1419.523926</ele>
        <time>2012-12-30T14:40:46Z</time>
      </trkpt>
      <trkpt lat="42.80286" lon="0.33197">
        <ele>1416.15918</ele>
        <time>2012-12-30T14:40:58Z</time>
      </trkpt>
      <trkpt lat="42.80287" lon="0.33198">
        <ele>1416.15918</ele>
        <time>2012-12-30T14:40:59Z</time>
      </trkpt>
      <trkpt lat="42.80295" lon="0.33201">
        <ele>1414.236572</ele>
        <time>2012-12-30T14:41:13Z</time>
      </trkpt>
      <trkpt lat="42.80308" lon="0.33208">
        <ele>1410.87207</ele>
        <time>2012-12-30T14:41:29Z</time>
      </trkpt>
      <trkpt lat="42.80311" lon="0.3321">
        <ele>1409.430176</ele>
        <time>2012-12-30T14:41:33Z</time>
      </trkpt>
      <trkpt lat="42.80322" lon="0.33221">
        <ele>1406.06543</ele>
        <time>2012-12-30T14:41:52Z</time>
      </trkpt>
      <trkpt lat="42.80329" lon="0.33226">
        <ele>1404.143066</ele>
        <time>2012-12-30T14:42:06Z</time>
      </trkpt>
      <trkpt lat="42.80333" lon="0.33232">
        <ele>1401.258789</ele>
        <time>2012-12-30T14:42:15Z</time>
      </trkpt>
      <trkpt lat="42.80339" lon="0.33237">
        <ele>1400.297607</ele>
        <time>2012-12-30T14:42:29Z</time>
      </trkpt>
      <trkpt lat="42.80347" lon="0.33246">
        <ele>1397.413574</ele>
        <time>2012-12-30T14:42:41Z</time>
      </trkpt>
      <trkpt lat="42.80353" lon="0.33254">
        <ele>1395.010254</ele>
        <time>2012-12-30T14:42:51Z</time>
      </trkpt>
      <trkpt lat="42.80362" lon="0.3326">
        <ele>1391.645752</ele>
        <time>2012-12-30T14:43:05Z</time>
      </trkpt>
      <trkpt lat="42.8037" lon="0.33269">
        <ele>1388.761963</ele>
        <time>2012-12-30T14:43:18Z</time>
      </trkpt>
      <trkpt lat="42.80377" lon="0.33278">
        <ele>1385.396973</ele>
        <time>2012-12-30T14:43:32Z</time>
      </trkpt>
      <trkpt lat="42.80379" lon="0.33279">
        <ele>1383.955078</ele>
        <time>2012-12-30T14:43:36Z</time>
      </trkpt>
      <trkpt lat="42.80391" lon="0.33288">
        <ele>1382.032471</ele>
        <time>2012-12-30T14:43:55Z</time>
      </trkpt>
      <trkpt lat="42.804" lon="0.33297">
        <ele>1378.667969</ele>
        <time>2012-12-30T14:44:08Z</time>
      </trkpt>
      <trkpt lat="42.80407" lon="0.333">
        <ele>1378.187256</ele>
        <time>2012-12-30T14:44:22Z</time>
      </trkpt>
      <trkpt lat="42.80408" lon="0.33299">
        <ele>1377.706543</ele>
        <time>2012-12-30T14:44:50Z</time>
      </trkpt>
      <trkpt lat="42.80407" lon="0.33299">
        <ele>1377.226074</ele>
        <time>2012-12-30T14:45:15Z</time>
      </trkpt>
      <trkpt lat="42.80407" lon="0.33297">
        <ele>1376.745361</ele>
        <time>2012-12-30T14:45:50Z</time>
      </trkpt>
      <trkpt lat="42.80411" lon="0.33299">
        <ele>1376.264648</ele>
        <time>2012-12-30T14:45:54Z</time>
      </trkpt>
      <trkpt lat="42.80415" lon="0.33302">
        <ele>1375.303223</ele>
        <time>2012-12-30T14:46:08Z</time>
      </trkpt>
      <trkpt lat="42.80428" lon="0.33312">
        <ele>1373.861328</ele>
        <time>2012-12-30T14:46:25Z</time>
      </trkpt>
      <trkpt lat="42.80437" lon="0.3332">
        <ele>1371.938477</ele>
        <time>2012-12-30T14:46:40Z</time>
      </trkpt>
      <trkpt lat="42.80446" lon="0.33327">
        <ele>1368.573975</ele>
        <time>2012-12-30T14:46:52Z</time>
      </trkpt>
      <trkpt lat="42.80449" lon="0.33329">
        <ele>1367.612549</ele>
        <time>2012-12-30T14:46:56Z</time>
      </trkpt>
      <trkpt lat="42.80452" lon="0.3333">
        <ele>1367.13208</ele>
        <time>2012-12-30T14:46:59Z</time>
      </trkpt>
      <trkpt lat="42.80462" lon="0.33341">
        <ele>1364.248047</ele>
        <time>2012-12-30T14:47:11Z</time>
      </trkpt>
      <trkpt lat="42.80475" lon="0.33363">
        <ele>1360.883545</ele>
        <time>2012-12-30T14:47:29Z</time>
      </trkpt>
      <trkpt lat="42.80484" lon="0.33383">
        <ele>1357.519043</ele>
        <time>2012-12-30T14:47:44Z</time>
      </trkpt>
      <trkpt lat="42.80492" lon="0.33407">
        <ele>1354.634766</ele>
        <time>2012-12-30T14:48:00Z</time>
      </trkpt>
      <trkpt lat="42.80492" lon="0.33409">
        <ele>1354.634766</ele>
        <time>2012-12-30T14:48:01Z</time>
      </trkpt>
      <trkpt lat="42.80499" lon="0.33433">
        <ele>1351.270264</ele>
        <time>2012-12-30T14:48:17Z</time>
      </trkpt>
      <trkpt lat="42.80506" lon="0.33461">
        <ele>1349.828369</ele>
        <time>2012-12-30T14:48:36Z</time>
      </trkpt>
      <trkpt lat="42.80514" lon="0.33494">
        <ele>1348.38623</ele>
        <time>2012-12-30T14:48:59Z</time>
      </trkpt>
      <trkpt lat="42.80516" lon="0.33505">
        <ele>1344.541016</ele>
        <time>2012-12-30T14:49:09Z</time>
      </trkpt>
      <trkpt lat="42.80517" lon="0.33506">
        <ele>1344.541016</ele>
        <time>2012-12-30T14:49:10Z</time>
      </trkpt>
      <trkpt lat="42.80519" lon="0.3352">
        <ele>1343.579834</ele>
        <time>2012-12-30T14:49:26Z</time>
      </trkpt>
      <trkpt lat="42.8052" lon="0.3352">
        <ele>1343.099121</ele>
        <time>2012-12-30T14:49:47Z</time>
      </trkpt>
      <trkpt lat="42.80527" lon="0.33526">
        <ele>1342.618652</ele>
        <time>2012-12-30T14:50:01Z</time>
      </trkpt>
      <trkpt lat="42.80529" lon="0.33534">
        <ele>1341.657227</ele>
        <time>2012-12-30T14:50:18Z</time>
      </trkpt>
      <trkpt lat="42.80531" lon="0.33535">
        <ele>1339.734375</ele>
        <time>2012-12-30T14:50:38Z</time>
      </trkpt>
      <trkpt lat="42.80532" lon="0.33535">
        <ele>1339.734375</ele>
        <time>2012-12-30T14:50:41Z</time>
      </trkpt>
      <trkpt lat="42.80542" lon="0.33534">
        <ele>1336.850342</ele>
        <time>2012-12-30T14:50:55Z</time>
      </trkpt>
      <trkpt lat="42.80549" lon="0.33538">
        <ele>1334.927979</ele>
        <time>2012-12-30T14:51:09Z</time>
      </trkpt>
      <trkpt lat="42.8055" lon="0.33539">
        <ele>1333.966553</ele>
        <time>2012-12-30T14:51:11Z</time>
      </trkpt>
      <trkpt lat="42.80554" lon="0.33543">
        <ele>1332.524658</ele>
        <time>2012-12-30T14:51:24Z</time>
      </trkpt>
      <trkpt lat="42.8056" lon="0.3355">
        <ele>1330.121338</ele>
        <time>2012-12-30T14:51:39Z</time>
      </trkpt>
      <trkpt lat="42.80567" lon="0.33564">
        <ele>1327.718018</ele>
        <time>2012-12-30T14:51:57Z</time>
      </trkpt>
      <trkpt lat="42.80572" lon="0.33581">
        <ele>1324.353516</ele>
        <time>2012-12-30T14:52:14Z</time>
      </trkpt>
      <trkpt lat="42.80576" lon="0.33597">
        <ele>1321.949951</ele>
        <time>2012-12-30T14:52:31Z</time>
      </trkpt>
      <trkpt lat="42.80577" lon="0.336">
        <ele>1320.508057</ele>
        <time>2012-12-30T14:52:34Z</time>
      </trkpt>
      <trkpt lat="42.80586" lon="0.33614">
        <ele>1317.143555</ele>
        <time>2012-12-30T14:52:53Z</time>
      </trkpt>
      <trkpt lat="42.80593" lon="0.33625">
        <ele>1315.220947</ele>
        <time>2012-12-30T14:53:10Z</time>
      </trkpt>
      <trkpt lat="42.806" lon="0.33634">
        <ele>1312.336914</ele>
        <time>2012-12-30T14:53:26Z</time>
      </trkpt>
      <trkpt lat="42.806" lon="0.33634">
        <ele>1311.856445</ele>
        <time>2012-12-30T14:53:27Z</time>
      </trkpt>
      <trkpt lat="42.80607" lon="0.33642">
        <ele>1308.972412</ele>
        <time>2012-12-30T14:53:42Z</time>
      </trkpt>
      <trkpt lat="42.80618" lon="0.33645">
        <ele>1306.088135</ele>
        <time>2012-12-30T14:53:59Z</time>
      </trkpt>
      <trkpt lat="42.80628" lon="0.33652">
        <ele>1302.24292</ele>
        <time>2012-12-30T14:54:17Z</time>
      </trkpt>
      <trkpt lat="42.80631" lon="0.33661">
        <ele>1299.839844</ele>
        <time>2012-12-30T14:54:27Z</time>
      </trkpt>
      <trkpt lat="42.80637" lon="0.33666">
        <ele>1297.917236</ele>
        <time>2012-12-30T14:54:35Z</time>
      </trkpt>
      <trkpt lat="42.80637" lon="0.33666">
        <ele>1296.955811</ele>
        <time>2012-12-30T14:54:36Z</time>
      </trkpt>
      <trkpt lat="42.8065" lon="0.33678">
        <ele>1294.072021</ele>
        <time>2012-12-30T14:54:55Z</time>
      </trkpt>
      <trkpt lat="42.80655" lon="0.33684">
        <ele>1290.707031</ele>
        <time>2012-12-30T14:55:08Z</time>
      </trkpt>
      <trkpt lat="42.80659" lon="0.33685">
        <ele>1288.784668</ele>
        <time>2012-12-30T14:55:23Z</time>
      </trkpt>
      <trkpt lat="42.80676" lon="0.33682">
        <ele>1286.861816</ele>
        <time>2012-12-30T14:55:43Z</time>
      </trkpt>
      <trkpt lat="42.80692" lon="0.3367">
        <ele>1284.45874</ele>
        <time>2012-12-30T14:56:02Z</time>
      </trkpt>
      <trkpt lat="42.80705" lon="0.33651">
        <ele>1282.536133</ele>
        <time>2012-12-30T14:56:23Z</time>
      </trkpt>
      <trkpt lat="42.80706" lon="0.3365">
        <ele>1283.016602</ele>
        <time>2012-12-30T14:56:24Z</time>
      </trkpt>
      <trkpt lat="42.80718" lon="0.3362">
        <ele>1282.05542</ele>
        <time>2012-12-30T14:56:48Z</time>
      </trkpt>
      <trkpt lat="42.80735" lon="0.33589">
        <ele>1279.6521</ele>
        <time>2012-12-30T14:57:13Z</time>
      </trkpt>
      <trkpt lat="42.8075" lon="0.33561">
        <ele>1278.690918</ele>
        <time>2012-12-30T14:57:36Z</time>
      </trkpt>
      <trkpt lat="42.8076" lon="0.33545">
        <ele>1277.249023</ele>
        <time>2012-12-30T14:57:50Z</time>
      </trkpt>
      <trkpt lat="42.80774" lon="0.33522">
        <ele>1274.845459</ele>
        <time>2012-12-30T14:58:11Z</time>
      </trkpt>
      <trkpt lat="42.80787" lon="0.33504">
        <ele>1271.480713</ele>
        <time>2012-12-30T14:58:31Z</time>
      </trkpt>
      <trkpt lat="42.808" lon="0.33496">
        <ele>1269.55835</ele>
        <time>2012-12-30T14:58:46Z</time>
      </trkpt>
      <trkpt lat="42.80809" lon="0.33497">
        <ele>1267.635498</ele>
        <time>2012-12-30T14:59:00Z</time>
      </trkpt>
      <trkpt lat="42.80812" lon="0.33501">
        <ele>1267.155029</ele>
        <time>2012-12-30T14:59:05Z</time>
      </trkpt>
      <trkpt lat="42.80813" lon="0.33527">
        <ele>1266.674316</ele>
        <time>2012-12-30T14:59:24Z</time>
      </trkpt>
      <trkpt lat="42.80809" lon="0.33549">
        <ele>1264.270996</ele>
        <time>2012-12-30T14:59:43Z</time>
      </trkpt>
      <trkpt lat="42.80806" lon="0.33568">
        <ele>1262.829102</ele>
        <time>2012-12-30T14:59:57Z</time>
      </trkpt>
      <trkpt lat="42.80798" lon="0.33595">
        <ele>1259.944824</ele>
        <time>2012-12-30T15:00:17Z</time>
      </trkpt>
      <trkpt lat="42.80791" lon="0.33615">
        <ele>1257.061035</ele>
        <time>2012-12-30T15:00:32Z</time>
      </trkpt>
      <trkpt lat="42.80789" lon="0.33621">
        <ele>1256.580322</ele>
        <time>2012-12-30T15:00:37Z</time>
      </trkpt>
      <trkpt lat="42.80785" lon="0.33647">
        <ele>1253.696533</ele>
        <time>2012-12-30T15:00:55Z</time>
      </trkpt>
      <trkpt lat="42.80783" lon="0.33666">
        <ele>1251.293213</ele>
        <time>2012-12-30T15:01:10Z</time>
      </trkpt>
      <trkpt lat="42.80782" lon="0.33685">
        <ele>1247.928711</ele>
        <time>2012-12-30T15:01:25Z</time>
      </trkpt>
      <trkpt lat="42.80777" lon="0.33708">
        <ele>1246.486816</ele>
        <time>2012-12-30T15:01:41Z</time>
      </trkpt>
      <trkpt lat="42.80776" lon="0.33715">
        <ele>1246.006104</ele>
        <time>2012-12-30T15:01:47Z</time>
      </trkpt>
      <trkpt lat="42.80774" lon="0.33735">
        <ele>1244.563965</ele>
        <time>2012-12-30T15:02:02Z</time>
      </trkpt>
      <trkpt lat="42.80773" lon="0.33761">
        <ele>1242.160645</ele>
        <time>2012-12-30T15:02:20Z</time>
      </trkpt>
      <trkpt lat="42.80773" lon="0.33764">
        <ele>1240.718506</ele>
        <time>2012-12-30T15:02:22Z</time>
      </trkpt>
      <trkpt lat="42.80773" lon="0.33766">
        <ele>1240.718506</ele>
        <time>2012-12-30T15:02:24Z</time>
      </trkpt>
      <trkpt lat="42.80768" lon="0.33787">
        <ele>1239.276611</ele>
        <time>2012-12-30T15:02:39Z</time>
      </trkpt>
      <trkpt lat="42.80759" lon="0.33807">
        <ele>1237.354004</ele>
        <time>2012-12-30T15:02:54Z</time>
      </trkpt>
      <trkpt lat="42.80741" lon="0.33837">
        <ele>1234.950928</ele>
        <time>2012-12-30T15:03:17Z</time>
      </trkpt>
      <trkpt lat="42.80731" lon="0.33852">
        <ele>1231.586182</ele>
        <time>2012-12-30T15:03:33Z</time>
      </trkpt>
      <trkpt lat="42.80725" lon="0.33869">
        <ele>1228.22168</ele>
        <time>2012-12-30T15:03:49Z</time>
      </trkpt>
      <trkpt lat="42.80721" lon="0.33889">
        <ele>1225.337402</ele>
        <time>2012-12-30T15:04:11Z</time>
      </trkpt>
      <trkpt lat="42.80718" lon="0.33902">
        <ele>1222.453613</ele>
        <time>2012-12-30T15:04:23Z</time>
      </trkpt>
      <trkpt lat="42.8071" lon="0.33922">
        <ele>1219.089111</ele>
        <time>2012-12-30T15:04:36Z</time>
      </trkpt>
      <trkpt lat="42.80699" lon="0.33944">
        <ele>1215.724609</ele>
        <time>2012-12-30T15:04:56Z</time>
      </trkpt>
      <trkpt lat="42.80689" lon="0.33966">
        <ele>1212.840576</ele>
        <time>2012-12-30T15:05:17Z</time>
      </trkpt>
      <trkpt lat="42.80685" lon="0.33981">
        <ele>1209.956299</ele>
        <time>2012-12-30T15:05:34Z</time>
      </trkpt>
      <trkpt lat="42.80686" lon="0.33995">
        <ele>1209.47583</ele>
        <time>2012-12-30T15:05:46Z</time>
      </trkpt>
      <trkpt lat="42.80688" lon="0.34013">
        <ele>1207.07251</ele>
        <time>2012-12-30T15:06:01Z</time>
      </trkpt>
      <trkpt lat="42.80701" lon="0.34009">
        <ele>1206.591797</ele>
        <time>2012-12-30T15:06:28Z</time>
      </trkpt>
      <trkpt lat="42.807" lon="0.34007">
        <ele>1208.033936</ele>
        <time>2012-12-30T15:06:34Z</time>
      </trkpt>
    </trkseg>
  </trk>
</gpx>